createdAt,value
2022-10-07T15:31:54.060Z,101257.36
2022-10-07T15:34:21.381Z,101257.98
2022-10-07T15:36:49.070Z,101259.16
2022-10-07T15:39:16.322Z,101257.57
2022-10-07T15:41:43.781Z,101255.70
2022-10-07T15:44:18.573Z,101253.81
2022-10-07T15:46:49.043Z,101257.20
2022-10-07T15:49:18.645Z,101260.81
2022-10-07T15:51:48.764Z,101260.27
2022-10-07T16:00:21.341Z,101282.75
2022-10-07T16:02:49.344Z,101278.86
2022-10-07T16:05:18.260Z,101285.45
2022-10-07T16:07:47.965Z,101289.36
2022-10-07T16:10:14.925Z,101290.63
2022-10-07T16:12:42.802Z,101293.03
2022-10-07T16:15:11.725Z,101295.11
2022-10-07T16:17:39.182Z,101297.75
2022-10-07T16:20:11.002Z,101298.44
2022-10-07T16:22:38.696Z,101301.90
2022-10-07T16:25:06.105Z,101298.89
2022-10-07T16:27:56.128Z,101298.19
2022-10-07T16:30:41.219Z,101299.92
2022-10-07T16:33:08.936Z,101299.77
2022-10-07T16:35:37.074Z,101304.91
2022-10-07T16:38:05.126Z,101306.41
2022-10-07T16:40:32.726Z,101305.76
2022-10-07T16:42:59.818Z,101303.46
2022-10-07T16:45:29.449Z,101307.60
2022-10-07T16:47:57.098Z,101309.14
2022-10-07T16:50:24.126Z,101310.48
2022-10-07T16:52:51.434Z,101308.71
2022-10-07T16:55:18.380Z,101311.08
2022-10-07T16:57:48.109Z,101311.05
2022-10-07T17:00:15.768Z,101310.65
2022-10-07T17:02:42.726Z,101311.48
2022-10-07T17:05:11.240Z,101307.17
2022-10-07T17:07:38.562Z,101310.67
2022-10-07T17:10:07.303Z,101313.24
2022-10-07T17:12:38.154Z,101310.08
2022-10-07T17:15:05.274Z,101312.83
2022-10-07T17:17:33.854Z,101312.88
2022-10-07T17:20:00.942Z,101310.47
2022-10-07T17:22:27.908Z,101309.20
2022-10-07T17:24:55.006Z,101310.11
2022-10-07T17:27:22.648Z,101311.20
2022-10-07T17:29:49.574Z,101316.75
2022-10-07T17:32:16.768Z,101313.23
2022-10-07T17:34:45.626Z,101315.70
2022-10-07T17:37:13.029Z,101316.27
2022-10-07T17:39:39.996Z,101316.45
2022-10-07T17:42:07.553Z,101315.02
2022-10-07T17:44:34.608Z,101314.23
2022-10-07T17:47:03.942Z,101318.41
2022-10-07T17:49:32.735Z,101318.11
2022-10-07T17:52:00.042Z,101321.39
2022-10-07T17:54:27.746Z,101318.05
2022-10-07T17:56:55.254Z,101320.00
2022-10-07T17:59:24.130Z,101316.48
2022-10-07T18:01:51.308Z,101313.59
2022-10-07T18:04:24.598Z,101316.02
2022-10-07T18:06:52.763Z,101311.98
2022-10-07T18:09:22.371Z,101313.79
2022-10-07T18:12:09.450Z,101314.29
2022-10-07T18:14:54.904Z,101316.13
2022-10-07T18:17:24.897Z,101316.83
2022-10-07T18:19:52.222Z,101315.09
2022-10-07T18:22:19.680Z,101316.98
2022-10-07T18:24:46.982Z,101321.70
2022-10-07T18:27:13.989Z,101316.85
2022-10-07T18:29:42.044Z,101317.94
2022-10-07T18:32:09.076Z,101323.69
2022-10-07T18:34:36.177Z,101319.46
2022-10-07T18:37:03.968Z,101322.20
2022-10-07T18:39:31.345Z,101325.61
2022-10-07T18:41:59.987Z,101327.23
2022-10-07T18:44:27.446Z,101326.75
2022-10-07T18:46:55.289Z,101326.50
2022-10-07T18:49:25.070Z,101328.43
2022-10-07T18:51:52.329Z,101329.30
2022-10-07T18:54:19.679Z,101326.95
2022-10-07T18:56:47.815Z,101329.22
2022-10-07T18:59:15.007Z,101324.18
2022-10-07T19:01:43.558Z,101323.77
2022-10-07T19:04:13.584Z,101324.33
2022-10-07T19:06:46.068Z,101323.58
2022-10-07T19:09:19.496Z,101327.82
2022-10-07T19:11:47.693Z,101326.29
2022-10-07T19:14:15.543Z,101326.64
2022-10-07T19:16:49.441Z,101327.42
2022-10-07T19:19:22.120Z,101327.08
2022-10-07T19:21:51.838Z,101332.06
2022-10-07T19:24:19.586Z,101336.00
2022-10-07T19:26:49.031Z,101335.09
2022-10-07T19:29:19.531Z,101332.53
2022-10-07T19:31:48.839Z,101334.71
2022-10-07T19:34:21.948Z,101333.85
2022-10-07T19:36:50.157Z,101335.85
2022-10-07T19:39:19.181Z,101334.96
2022-10-07T19:41:46.514Z,101336.42
2022-10-07T19:44:14.139Z,101341.28
2022-10-07T19:46:41.564Z,101340.27
2022-10-07T19:49:10.368Z,101343.69
2022-10-07T19:51:37.808Z,101341.96
2022-10-07T19:54:10.048Z,101345.33
2022-10-07T19:56:40.218Z,101343.77
2022-10-07T19:59:11.768Z,101342.88
2022-10-07T20:01:43.557Z,101342.57
2022-10-07T20:04:15.669Z,101343.61
2022-10-07T20:06:43.158Z,101342.21
2022-10-07T20:09:12.830Z,101345.48
2022-10-07T20:11:53.338Z,101348.36
2022-10-07T20:14:20.351Z,101350.81
2022-10-07T20:16:47.289Z,101352.20
2022-10-07T20:19:16.520Z,101347.84
2022-10-07T20:21:44.894Z,101352.98
2022-10-07T20:24:14.619Z,101355.10
2022-10-07T20:26:42.682Z,101357.95
2022-10-07T20:29:14.012Z,101358.63
2022-10-07T20:31:41.358Z,101355.31
2022-10-07T20:34:13.301Z,101354.80
2022-10-07T20:36:41.591Z,101355.19
2022-10-07T20:39:33.370Z,101358.58
2022-10-07T20:42:18.771Z,101365.29
2022-10-07T20:44:47.593Z,101357.30
2022-10-07T20:47:14.617Z,101361.98
2022-10-07T20:49:42.425Z,101365.51
2022-10-07T20:52:11.617Z,101361.73
2022-10-07T20:54:38.563Z,101365.34
2022-10-07T20:57:07.501Z,101362.52
2022-10-07T20:59:36.860Z,101367.02
2022-10-07T21:02:09.479Z,101366.40
2022-10-07T21:04:36.995Z,101368.36
2022-10-07T21:07:04.703Z,101367.34
2022-10-07T21:09:36.464Z,101368.05
2022-10-07T21:12:07.598Z,101364.77
2022-10-07T21:14:36.855Z,101370.80
2022-10-07T21:17:05.357Z,101366.91
2022-10-07T21:19:32.882Z,101368.80
2022-10-07T21:21:59.890Z,101362.31
2022-10-07T21:24:26.764Z,101362.88
2022-10-07T21:26:53.697Z,101360.80
2022-10-07T21:29:20.538Z,101359.60
2022-10-07T21:31:47.487Z,101360.69
2022-10-07T21:34:14.494Z,101359.45
2022-10-07T21:36:50.307Z,101360.05
2022-10-07T21:39:20.188Z,101360.48
2022-10-07T21:41:48.179Z,101362.02
2022-10-07T21:44:15.201Z,101357.83
2022-10-07T21:46:48.062Z,101359.41
2022-10-07T21:49:15.187Z,101357.70
2022-10-07T21:51:42.656Z,101355.92
2022-10-07T21:54:14.396Z,101361.17
2022-10-07T21:56:43.769Z,101358.08
2022-10-07T21:59:10.827Z,101359.20
2022-10-07T22:01:42.582Z,101356.84
2022-10-07T22:04:16.785Z,101355.43
2022-10-07T22:07:02.529Z,101357.57
2022-10-07T22:09:31.239Z,101358.12
2022-10-07T22:11:58.132Z,101360.42
2022-10-07T22:14:25.243Z,101358.52
2022-10-07T22:16:55.490Z,101359.94
2022-10-07T22:19:23.215Z,101359.23
2022-10-07T22:21:50.137Z,101358.34
2022-10-07T22:24:17.168Z,101359.20
2022-10-07T22:26:47.374Z,101359.23
2022-10-07T22:29:16.331Z,101357.27
2022-10-07T22:31:43.848Z,101362.05
2022-10-07T22:34:30.754Z,101362.98
2022-10-07T22:37:00.537Z,101361.92
2022-10-07T22:39:28.824Z,101365.70
2022-10-07T22:41:56.491Z,101362.53
2022-10-07T22:44:23.587Z,101361.63
2022-10-07T22:46:50.449Z,101360.73
2022-10-07T22:49:18.179Z,101357.08
2022-10-07T22:51:45.374Z,101356.54
2022-10-07T22:54:12.911Z,101356.89
2022-10-07T22:56:40.295Z,101354.20
2022-10-07T22:59:08.810Z,101354.54
2022-10-07T23:01:36.706Z,101349.59
2022-10-07T23:04:04.953Z,101350.81
2022-10-07T23:06:35.238Z,101348.49
2022-10-07T23:09:02.554Z,101349.39
2022-10-07T23:11:29.942Z,101345.67
2022-10-07T23:13:57.471Z,101348.52
2022-10-07T23:16:26.382Z,101348.70
2022-10-07T23:18:54.335Z,101342.91
2022-10-07T23:21:26.094Z,101340.97
2022-10-07T23:24:05.941Z,101338.88
2022-10-07T23:26:34.625Z,101344.78
2022-10-07T23:29:01.960Z,101342.45
2022-10-07T23:31:30.514Z,101344.01
2022-10-07T23:33:58.172Z,101340.86
2022-10-07T23:36:25.532Z,101336.13
2022-10-07T23:38:52.518Z,101337.08
2022-10-07T23:41:24.719Z,101335.17
2022-10-07T23:43:52.152Z,101333.46
2022-10-07T23:46:19.938Z,101330.15
2022-10-07T23:48:47.153Z,101334.51
2022-10-07T23:51:16.060Z,101333.50
2022-10-07T23:53:43.575Z,101331.08
2022-10-07T23:56:13.102Z,101329.88
2022-10-07T23:58:40.551Z,101328.46
